VQBOS LDDU-LYTV
Flight info
| Callsign | VQBOS |
|---|---|
| Flight time | 0h 34m |
| Altitude | 9000 |
| Route | N0460A090 BALHA L187 MOKUN |
| Aircraft | B738/M-Q/L |
Departure
| Time | 2026-05-04 06:28 |
|---|---|
| Airport | Dubrovnik Ruđer Bošković Airport (LDDU) |
Arrival
| Time | 2026-05-04 07:02 |
|---|---|
| Airport | Tivat Airport (LYTV) |
| Time | Latitude | Longitude | Altitude | Speed | Heading |
|---|---|---|---|---|---|
| 2026-05-04 06:13 | 42.55991 | 18.26562 | 533 ft | 0 kts | 208° |
| 2026-05-04 06:22 | 42.55997 | 18.26566 | 534 ft | 2 kts | 207° |
| 2026-05-04 06:25 | 42.56017 | 18.26648 | 533 ft | 13 kts | 117° |
| 2026-05-04 06:25 | 42.55975 | 18.26758 | 533 ft | 13 kts | 117° |
| 2026-05-04 06:26 | 42.55934 | 18.26865 | 533 ft | 13 kts | 118° |
| 2026-05-04 06:26 | 42.55892 | 18.26968 | 533 ft | 12 kts | 118° |
| 2026-05-04 06:26 | 42.55851 | 18.27070 | 533 ft | 13 kts | 118° |
| 2026-05-04 06:26 | 42.55807 | 18.27181 | 533 ft | 14 kts | 118° |
| 2026-05-04 06:27 | 42.56033 | 18.27082 | 532 ft | 70 kts | 298° |
| 2026-05-04 06:28 | 42.56429 | 18.26099 | 558 ft | 161 kts | 300° |
| 2026-05-04 06:28 | 42.57012 | 18.24600 | 948 ft | 193 kts | 298° |
| 2026-05-04 06:28 | 42.57626 | 18.22933 | 1562 ft | 199 kts | 296° |
| 2026-05-04 06:28 | 42.58257 | 18.21241 | 1967 ft | 207 kts | 296° |
| 2026-05-04 06:29 | 42.58574 | 18.19331 | 2203 ft | 221 kts | 264° |
| 2026-05-04 06:29 | 42.57999 | 18.17305 | 2497 ft | 241 kts | 232° |
| 2026-05-04 06:29 | 42.56784 | 18.15800 | 2760 ft | 234 kts | 217° |
| 2026-05-04 06:29 | 42.55490 | 18.14511 | 2968 ft | 229 kts | 215° |
| 2026-05-04 06:30 | 42.54139 | 18.13198 | 3247 ft | 249 kts | 215° |
| 2026-05-04 06:30 | 42.52566 | 18.12198 | 3448 ft | 253 kts | 189° |
| 2026-05-04 06:30 | 42.50804 | 18.12376 | 3725 ft | 265 kts | 160° |
| 2026-05-04 06:30 | 42.49220 | 18.13729 | 4002 ft | 275 kts | 135° |
| 2026-05-04 06:31 | 42.48076 | 18.15757 | 4252 ft | 274 kts | 117° |
| 2026-05-04 06:31 | 42.47250 | 18.18091 | 4519 ft | 275 kts | 113° |
| 2026-05-04 06:31 | 42.46601 | 18.20527 | 4773 ft | 275 kts | 104° |
| 2026-05-04 06:31 | 42.46093 | 18.23038 | 4992 ft | 276 kts | 104° |
| 2026-05-04 06:32 | 42.45583 | 18.25546 | 4991 ft | 277 kts | 104° |
| 2026-05-04 06:33 | 42.41987 | 18.43164 | 4999 ft | 278 kts | 104° |
| 2026-05-04 06:34 | 42.41474 | 18.45685 | 5011 ft | 278 kts | 104° |
| 2026-05-04 06:34 | 42.40967 | 18.48174 | 5017 ft | 278 kts | 104° |
| 2026-05-04 06:34 | 42.40455 | 18.50692 | 5018 ft | 277 kts | 104° |
| 2026-05-04 06:34 | 42.39939 | 18.53218 | 5021 ft | 278 kts | 104° |
| 2026-05-04 06:35 | 42.39427 | 18.55738 | 5025 ft | 277 kts | 104° |
| 2026-05-04 06:36 | 42.29934 | 18.66228 | 5018 ft | 280 kts | 166° |
| 2026-05-04 06:37 | 42.28043 | 18.66856 | 5014 ft | 277 kts | 166° |
| 2026-05-04 06:37 | 42.26196 | 18.67467 | 4845 ft | 271 kts | 166° |
| 2026-05-04 06:37 | 42.24385 | 18.68066 | 4633 ft | 265 kts | 166° |
| 2026-05-04 06:37 | 42.22612 | 18.68654 | 4409 ft | 259 kts | 166° |
| 2026-05-04 06:38 | 42.20892 | 18.69225 | 4215 ft | 255 kts | 166° |
| 2026-05-04 06:38 | 42.19191 | 18.69791 | 4063 ft | 247 kts | 166° |
| 2026-05-04 06:40 | 42.11291 | 18.76251 | 3996 ft | 195 kts | 117° |
| 2026-05-04 06:40 | 42.10659 | 18.77844 | 4006 ft | 191 kts | 117° |
| 2026-05-04 06:40 | 42.10041 | 18.79404 | 4007 ft | 191 kts | 117° |
| 2026-05-04 06:40 | 42.09574 | 18.81060 | 3999 ft | 185 kts | 100° |
| 2026-05-04 06:41 | 42.09396 | 18.82709 | 3980 ft | 172 kts | 82° |
| 2026-05-04 06:41 | 42.09909 | 18.84062 | 4005 ft | 163 kts | 37° |
| 2026-05-04 06:41 | 42.10931 | 18.84644 | 4024 ft | 160 kts | 15° |
| 2026-05-04 06:41 | 42.12014 | 18.85073 | 4014 ft | 163 kts | 16° |
| 2026-05-04 06:42 | 42.13102 | 18.85508 | 4014 ft | 164 kts | 16° |
| 2026-05-04 06:42 | 42.14196 | 18.85945 | 4011 ft | 164 kts | 16° |
| 2026-05-04 06:42 | 42.15295 | 18.86383 | 4007 ft | 165 kts | 16° |
| 2026-05-04 06:44 | 42.14073 | 18.85593 | 4003 ft | 202 kts | 144° |
| 2026-05-04 06:44 | 42.12896 | 18.86627 | 3998 ft | 201 kts | 148° |
| 2026-05-04 06:44 | 42.11692 | 18.87563 | 3997 ft | 199 kts | 150° |
| 2026-05-04 06:45 | 42.10469 | 18.88432 | 3999 ft | 198 kts | 153° |
| 2026-05-04 06:45 | 42.09236 | 18.89248 | 3997 ft | 197 kts | 154° |
| 2026-05-04 06:45 | 42.07994 | 18.90023 | 3999 ft | 197 kts | 155° |
| 2026-05-04 06:45 | 42.06732 | 18.90773 | 4012 ft | 204 kts | 156° |
| 2026-05-04 06:46 | 42.05405 | 18.91536 | 4012 ft | 208 kts | 156° |
| 2026-05-04 06:46 | 42.04072 | 18.92288 | 4003 ft | 207 kts | 157° |
| 2026-05-04 06:46 | 42.02746 | 18.93029 | 4001 ft | 205 kts | 157° |
| 2026-05-04 06:46 | 42.01444 | 18.93752 | 4002 ft | 204 kts | 157° |
| 2026-05-04 06:48 | 42.00879 | 18.87704 | 4010 ft | 198 kts | 338° |
| 2026-05-04 06:48 | 42.02136 | 18.86986 | 3999 ft | 198 kts | 337° |
| 2026-05-04 06:49 | 42.03405 | 18.86261 | 4004 ft | 198 kts | 338° |
| 2026-05-04 06:50 | 42.03954 | 18.92373 | 4009 ft | 206 kts | 157° |
| 2026-05-04 06:51 | 42.02623 | 18.93115 | 4004 ft | 207 kts | 157° |
| 2026-05-04 06:51 | 42.01305 | 18.93854 | 4009 ft | 208 kts | 156° |
| 2026-05-04 06:51 | 41.99928 | 18.94453 | 3989 ft | 210 kts | 177° |
| 2026-05-04 06:51 | 41.98547 | 18.93971 | 4001 ft | 207 kts | 216° |
| 2026-05-04 06:52 | 41.97682 | 18.92493 | 4012 ft | 203 kts | 253° |
| 2026-05-04 06:52 | 41.97632 | 18.90639 | 4006 ft | 201 kts | 288° |
| 2026-05-04 06:52 | 41.98373 | 18.89101 | 4013 ft | 198 kts | 322° |
| 2026-05-04 06:52 | 41.99566 | 18.88180 | 4011 ft | 198 kts | 330° |
| 2026-05-04 06:53 | 42.00801 | 18.87382 | 3992 ft | 198 kts | 350° |
| 2026-05-04 06:53 | 42.02170 | 18.87217 | 4009 ft | 198 kts | 357° |
| 2026-05-04 06:53 | 42.03552 | 18.87137 | 4007 ft | 199 kts | 358° |
| 2026-05-04 06:53 | 42.04934 | 18.87065 | 4002 ft | 199 kts | 358° |
| 2026-05-04 06:54 | 42.06297 | 18.86997 | 4001 ft | 199 kts | 358° |
| 2026-05-04 06:54 | 42.07677 | 18.86929 | 4000 ft | 198 kts | 358° |
| 2026-05-04 06:54 | 42.09058 | 18.86865 | 4000 ft | 198 kts | 358° |
| 2026-05-04 06:54 | 42.10432 | 18.86822 | 4003 ft | 197 kts | 359° |
| 2026-05-04 06:55 | 42.11815 | 18.86786 | 3895 ft | 201 kts | 359° |
| 2026-05-04 06:55 | 42.13217 | 18.86752 | 3778 ft | 201 kts | 359° |
| 2026-05-04 06:55 | 42.14606 | 18.86721 | 3643 ft | 198 kts | 359° |
| 2026-05-04 06:55 | 42.15954 | 18.86691 | 3540 ft | 188 kts | 359° |
| 2026-05-04 06:56 | 42.17223 | 18.86644 | 3442 ft | 179 kts | 353° |
| 2026-05-04 06:57 | 42.25033 | 18.83439 | 2623 ft | 153 kts | 338° |
| 2026-05-04 06:58 | 42.26030 | 18.82888 | 2554 ft | 158 kts | 338° |
| 2026-05-04 06:58 | 42.27033 | 18.82281 | 2398 ft | 159 kts | 335° |
| 2026-05-04 06:58 | 42.28015 | 18.81658 | 2175 ft | 152 kts | 335° |
| 2026-05-04 06:58 | 42.28952 | 18.81065 | 1970 ft | 145 kts | 335° |
| 2026-05-04 06:59 | 42.29874 | 18.80476 | 1882 ft | 148 kts | 335° |
| 2026-05-04 06:59 | 42.30790 | 18.79867 | 1818 ft | 146 kts | 332° |
| 2026-05-04 06:59 | 42.31675 | 18.79234 | 1764 ft | 142 kts | 332° |
| 2026-05-04 06:59 | 42.32551 | 18.78616 | 1669 ft | 145 kts | 335° |
| 2026-05-04 07:01 | 42.38612 | 18.74491 | 402 ft | 136 kts | 318° |
| 2026-05-04 07:01 | 42.39331 | 18.73651 | 114 ft | 137 kts | 319° |
| 2026-05-04 07:02 | 42.40045 | 18.72822 | 9 ft | 134 kts | 319° |
| 2026-05-04 07:02 | 42.40701 | 18.72051 | 1 ft | 101 kts | 319° |
| 2026-05-04 07:02 | 42.40920 | 18.71792 | 5 ft | 8 kts | 319° |
| 2026-05-04 07:02 | 42.40976 | 18.71827 | 6 ft | 11 kts | 53° |
| 2026-05-04 07:03 | 42.40989 | 18.71850 | 6 ft | 0 kts | 44° |
| 2026-05-04 07:03 | 42.41000 | 18.71852 | 6 ft | 5 kts | 359° |
| 2026-05-04 07:03 | 42.41042 | 18.71862 | 7 ft | 7 kts | 43° |
| 2026-05-04 07:03 | 42.41038 | 18.71897 | 8 ft | 2 kts | 161° |
| 2026-05-04 07:04 | 42.41029 | 18.71891 | 8 ft | 0 kts | 203° |